createdAt,value
2019-05-10T00:00:50.454Z,8.80
2019-05-10T00:03:37.308Z,8.80
2019-05-10T00:06:24.065Z,8.80
2019-05-10T00:08:51.851Z,8.70
2019-05-10T00:11:38.903Z,8.60
2019-05-10T00:14:28.159Z,8.60
2019-05-10T00:16:58.600Z,8.70
2019-05-10T00:19:27.066Z,8.70
2019-05-10T00:21:55.595Z,8.60
2019-05-10T00:24:24.135Z,8.60
2019-05-10T00:26:52.843Z,8.50
2019-05-10T00:29:21.744Z,8.50
2019-05-10T00:31:50.191Z,8.50
2019-05-10T00:34:18.654Z,8.40
2019-05-10T00:36:47.104Z,8.30
2019-05-10T00:39:19.200Z,8.30
2019-05-10T00:41:46.064Z,8.20
2019-05-10T00:44:14.603Z,8.10
2019-05-10T00:46:43.396Z,7.90
2019-05-10T00:49:11.849Z,7.80
2019-05-10T00:51:40.324Z,7.90
2019-05-10T00:54:08.789Z,7.80
2019-05-10T00:56:37.247Z,7.60
2019-05-10T00:59:06.032Z,7.50
2019-05-10T01:01:34.496Z,7.50
2019-05-10T01:04:03.318Z,7.30
2019-05-10T01:06:31.859Z,7.20
2019-05-10T01:09:00.691Z,7.10
2019-05-10T01:11:29.688Z,7.10
2019-05-10T01:13:58.130Z,6.70
2019-05-10T01:16:26.675Z,6.80
2019-05-10T01:18:55.123Z,6.70
2019-05-10T01:21:23.940Z,6.70
2019-05-10T01:23:52.391Z,6.80
2019-05-10T01:26:20.855Z,7.00
2019-05-10T01:28:49.303Z,7.00
2019-05-10T01:31:19.338Z,7.10
2019-05-10T01:33:47.792Z,7.20
2019-05-10T01:36:16.591Z,7.50
2019-05-10T01:38:45.379Z,7.40
2019-05-10T01:41:14.244Z,7.30
2019-05-10T01:43:42.727Z,7.30
2019-05-10T01:46:11.196Z,7.30
2019-05-10T01:48:39.648Z,7.30
2019-05-10T01:51:08.435Z,7.60
2019-05-10T01:53:37.319Z,7.60
2019-05-10T01:56:05.797Z,7.50
2019-05-10T01:58:34.379Z,7.30
2019-05-10T02:01:03.153Z,7.30
2019-05-10T02:03:31.982Z,7.40
2019-05-10T02:06:00.452Z,7.50
2019-05-10T02:08:28.899Z,7.60
2019-05-10T02:10:57.368Z,7.40
2019-05-10T02:13:25.815Z,7.40
2019-05-10T02:15:54.611Z,7.40
2019-05-10T02:18:23.064Z,7.60
2019-05-10T02:20:51.891Z,7.70
2019-05-10T02:23:20.683Z,7.50
2019-05-10T02:25:49.491Z,7.50
2019-05-10T02:28:18.019Z,7.70
2019-05-10T02:30:46.766Z,7.60
2019-05-10T02:33:15.304Z,7.50
2019-05-10T02:35:44.149Z,7.60
2019-05-10T02:38:12.945Z,7.80
2019-05-10T02:40:41.824Z,7.80
2019-05-10T02:43:10.290Z,7.60
2019-05-10T02:45:38.748Z,7.50
2019-05-10T02:48:07.601Z,7.50
2019-05-10T02:50:36.121Z,7.50
2019-05-10T02:53:04.727Z,7.90
2019-05-10T02:55:34.720Z,7.80
2019-05-10T02:58:03.360Z,7.70
2019-05-10T03:00:34.663Z,7.60
2019-05-10T03:03:06.185Z,7.80
2019-05-10T03:05:36.574Z,7.80
2019-05-10T03:08:06.142Z,7.60
2019-05-10T03:10:36.760Z,7.80
2019-05-10T03:13:05.553Z,7.80
2019-05-10T03:15:36.488Z,8.00
2019-05-10T03:18:06.456Z,8.00
2019-05-10T03:20:38.268Z,8.20
2019-05-10T03:23:09.314Z,8.00
2019-05-10T03:25:37.820Z,7.70
2019-05-10T03:28:06.816Z,7.60
2019-05-10T03:30:35.331Z,7.50
2019-05-10T03:33:03.877Z,7.60
2019-05-10T03:35:32.530Z,7.60
2019-05-10T03:38:01.362Z,7.70
2019-05-10T03:40:29.879Z,7.60
2019-05-10T03:42:58.640Z,7.60
2019-05-10T03:45:27.117Z,7.90
2019-05-10T03:47:56.021Z,8.00
2019-05-10T03:50:24.480Z,8.30
2019-05-10T03:52:53.303Z,8.20
2019-05-10T03:55:22.088Z,8.00
2019-05-10T03:57:50.561Z,8.20
2019-05-10T04:00:19.228Z,8.30
2019-05-10T04:02:48.065Z,8.30
2019-05-10T04:05:18.188Z,8.00
2019-05-10T04:07:46.654Z,7.90
2019-05-10T04:10:20.093Z,7.90
2019-05-10T04:12:45.757Z,8.00
2019-05-10T04:15:14.689Z,7.90
2019-05-10T04:17:43.584Z,7.90
2019-05-10T04:20:12.371Z,7.80
2019-05-10T04:22:41.165Z,7.80
2019-05-10T04:25:09.756Z,8.00
2019-05-10T04:27:38.302Z,8.30
2019-05-10T04:30:08.289Z,8.20
2019-05-10T04:32:37.166Z,8.20
2019-05-10T04:35:07.279Z,8.20
2019-05-10T04:37:35.755Z,7.80
2019-05-10T04:40:06.024Z,7.70
2019-05-10T04:42:34.572Z,7.60
2019-05-10T04:45:03.376Z,7.70
2019-05-10T04:47:31.905Z,7.90
2019-05-10T04:50:00.546Z,8.10
2019-05-10T04:52:29.076Z,8.00
2019-05-10T04:54:57.607Z,8.00
2019-05-10T04:57:26.407Z,8.00
2019-05-10T04:59:54.884Z,8.10
2019-05-10T05:02:23.692Z,8.10
2019-05-10T05:04:52.485Z,8.00
2019-05-10T05:07:21.011Z,8.00
2019-05-10T05:09:49.563Z,8.30
2019-05-10T05:12:18.016Z,8.70
2019-05-10T05:14:46.744Z,9.10
2019-05-10T05:17:15.187Z,9.40
2019-05-10T05:19:43.655Z,9.00
2019-05-10T05:22:12.107Z,8.90
2019-05-10T05:24:40.575Z,9.10
2019-05-10T05:27:09.367Z,9.00
2019-05-10T05:29:37.905Z,9.10
2019-05-10T05:32:06.652Z,9.30
2019-05-10T05:34:35.536Z,9.60
2019-05-10T05:37:04.051Z,9.60
2019-05-10T05:39:32.816Z,9.60
2019-05-10T05:42:01.336Z,9.90
2019-05-10T05:44:29.883Z,10.00
2019-05-10T05:46:58.345Z,10.60
2019-05-10T05:49:26.813Z,10.90
2019-05-10T05:51:55.335Z,10.80
2019-05-10T05:54:24.182Z,10.90
2019-05-10T05:56:53.041Z,11.00
2019-05-10T05:59:23.825Z,11.20
2019-05-10T06:01:52.290Z,11.50
2019-05-10T06:04:20.807Z,11.80
2019-05-10T06:06:53.634Z,12.00
2019-05-10T06:09:19.468Z,12.10
2019-05-10T06:11:47.987Z,13.50
2019-05-10T06:14:16.463Z,14.20
2019-05-10T06:16:50.863Z,13.80
2019-05-10T06:19:19.876Z,13.10
2019-05-10T06:21:45.600Z,12.10
2019-05-10T06:24:15.847Z,11.50
2019-05-10T06:26:44.413Z,11.30
2019-05-10T06:29:17.349Z,11.20
2019-05-10T06:31:43.055Z,12.40
2019-05-10T06:34:11.531Z,14.20
2019-05-10T06:36:39.995Z,14.30
2019-05-10T06:39:08.866Z,14.80
2019-05-10T06:41:37.403Z,15.40
2019-05-10T06:44:06.287Z,15.00
2019-05-10T06:46:35.045Z,14.50
2019-05-10T06:49:08.460Z,15.80
2019-05-10T06:51:34.124Z,16.10
2019-05-10T06:54:02.952Z,15.80
2019-05-10T06:56:31.419Z,14.90
2019-05-10T06:59:12.217Z,14.90
2019-05-10T07:01:30.432Z,15.50
2019-05-10T07:03:58.955Z,15.80
2019-05-10T07:06:27.736Z,15.80
2019-05-10T07:08:58.078Z,15.50
2019-05-10T07:11:26.756Z,14.50
2019-05-10T07:13:55.647Z,13.90
2019-05-10T07:16:25.898Z,14.50
2019-05-10T07:18:54.840Z,14.90
2019-05-10T07:21:24.483Z,15.30
2019-05-10T07:23:52.932Z,15.20
2019-05-10T07:26:24.415Z,15.50
2019-05-10T07:28:56.840Z,16.50
2019-05-10T07:31:23.640Z,16.10
2019-05-10T07:33:52.337Z,14.70
2019-05-10T07:36:27.261Z,14.50
2019-05-10T07:38:51.554Z,16.00
2019-05-10T07:41:26.762Z,14.80
2019-05-10T07:43:50.476Z,13.90
2019-05-10T07:46:19.018Z,13.40
2019-05-10T07:48:53.251Z,13.70
2019-05-10T07:51:22.729Z,13.30
2019-05-10T07:53:48.765Z,12.70
2019-05-10T07:56:18.127Z,12.30
2019-05-10T07:58:46.916Z,12.40
2019-05-10T08:01:15.813Z,12.70
2019-05-10T08:03:48.455Z,12.90
2019-05-10T08:06:15.594Z,12.80
2019-05-10T08:08:44.259Z,12.50
2019-05-10T08:11:13.131Z,12.70
2019-05-10T08:13:41.580Z,12.50
2019-05-10T08:16:16.777Z,12.40
2019-05-10T08:18:42.495Z,12.20
2019-05-10T08:21:21.793Z,12.40
2019-05-10T08:23:41.491Z,12.50
2019-05-10T08:26:17.527Z,13.20
2019-05-10T08:28:44.430Z,12.80
2019-05-10T08:31:12.410Z,12.90
2019-05-10T08:33:44.235Z,13.10
2019-05-10T08:36:12.191Z,12.90
2019-05-10T08:38:46.210Z,13.10
2019-05-10T08:41:14.764Z,13.10
2019-05-10T08:43:43.238Z,13.10
2019-05-10T08:46:12.157Z,13.00
2019-05-10T08:48:46.174Z,13.10
2019-05-10T08:51:12.542Z,13.20
2019-05-10T08:53:42.078Z,15.40
2019-05-10T08:56:13.672Z,17.00
2019-05-10T08:58:42.189Z,17.40
2019-05-10T09:01:24.015Z,16.20
2019-05-10T09:03:42.026Z,15.60
2019-05-10T09:06:16.291Z,14.50
2019-05-10T09:08:43.167Z,14.20
2019-05-10T09:11:11.582Z,14.40
2019-05-10T09:13:45.094Z,14.50
2019-05-10T09:16:10.597Z,14.70
2019-05-10T09:18:46.227Z,14.90
2019-05-10T09:21:11.524Z,14.90
2019-05-10T09:23:39.837Z,14.70
2019-05-10T09:26:15.298Z,14.20
2019-05-10T09:28:38.849Z,13.50
2019-05-10T09:31:18.810Z,13.60
2019-05-10T09:33:41.033Z,13.20
2019-05-10T09:36:08.039Z,13.70
2019-05-10T09:38:39.288Z,13.80
2019-05-10T09:41:06.827Z,13.50
2019-05-10T09:43:40.576Z,13.70
2019-05-10T09:46:05.797Z,14.20
2019-05-10T09:48:34.637Z,14.10
2019-05-10T09:51:04.491Z,14.00
2019-05-10T09:53:33.452Z,13.80
2019-05-10T09:56:03.319Z,13.50
2019-05-10T09:58:31.988Z,13.60
2019-05-10T10:01:14.059Z,14.10
2019-05-10T10:03:39.828Z,14.30
2019-05-10T10:06:07.392Z,14.00
2019-05-10T10:08:31.322Z,14.70
2019-05-10T10:11:10.438Z,15.40
2019-05-10T10:13:39.480Z,15.20
2019-05-10T10:16:03.919Z,15.20
2019-05-10T10:18:31.404Z,14.70
2019-05-10T10:20:59.851Z,15.10
2019-05-10T10:23:33.074Z,14.90
2019-05-10T10:25:58.508Z,14.30
2019-05-10T10:28:28.652Z,14.50
2019-05-10T10:31:00.004Z,14.90
2019-05-10T10:33:29.084Z,15.10
2019-05-10T10:36:04.584Z,16.10
2019-05-10T10:38:31.098Z,15.70
2019-05-10T10:40:57.963Z,15.10
2019-05-10T10:43:27.207Z,15.00
2019-05-10T10:45:57.492Z,15.70
2019-05-10T10:48:28.482Z,16.00
2019-05-10T10:50:58.672Z,15.10
2019-05-10T10:53:28.351Z,16.50
2019-05-10T10:56:03.437Z,17.30
2019-05-10T10:58:27.740Z,16.90
2019-05-10T11:00:56.191Z,16.00
2019-05-10T11:03:30.499Z,15.70
2019-05-10T11:05:55.205Z,14.60
2019-05-10T11:08:24.048Z,14.60
2019-05-10T11:10:52.843Z,14.80
2019-05-10T11:13:40.594Z,14.80
2019-05-10T11:15:51.818Z,14.30
2019-05-10T11:18:21.673Z,14.70
2019-05-10T11:20:53.937Z,14.60
2019-05-10T11:23:24.643Z,14.00
2019-05-10T11:25:56.293Z,14.30
2019-05-10T11:28:21.660Z,14.10
2019-05-10T11:30:51.199Z,14.10
2019-05-10T11:33:27.223Z,13.70
2019-05-10T11:35:51.392Z,14.30
2019-05-10T11:38:21.455Z,14.20
2019-05-10T11:40:50.160Z,14.00
2019-05-10T11:43:23.663Z,15.00
2019-05-10T11:45:51.317Z,16.10
2019-05-10T11:48:21.473Z,16.60
2019-05-10T11:50:51.398Z,17.00
2019-05-10T11:53:23.859Z,17.00
2019-05-10T11:55:51.735Z,16.60
2019-05-10T11:58:23.766Z,17.20
2019-05-10T12:00:56.485Z,16.60
2019-05-10T12:03:23.367Z,16.10
2019-05-10T12:06:04.578Z,17.40
2019-05-10T12:08:22.707Z,18.20
2019-05-10T12:13:25.012Z,17.80
2019-05-10T12:15:52.580Z,18.00
2019-05-10T12:18:26.556Z,17.60
2019-05-10T12:21:00.333Z,18.10
2019-05-10T12:23:29.486Z,19.60
2019-05-10T12:26:49.398Z,19.50
2019-05-10T12:26:50.471Z,18.90
2019-05-10T12:28:28.480Z,18.50
2019-05-10T12:30:53.191Z,18.70
2019-05-10T12:33:27.538Z,18.40
2019-05-10T12:35:52.523Z,17.00
2019-05-10T12:38:23.462Z,16.70
2019-05-10T12:40:51.469Z,16.10
2019-05-10T12:43:21.119Z,17.00
2019-05-10T12:45:51.750Z,18.60
2019-05-10T12:48:23.136Z,19.90
2019-05-10T12:50:54.405Z,20.30
2019-05-10T12:53:21.484Z,19.60
2019-05-10T12:55:50.444Z,19.30
2019-05-10T12:58:18.906Z,18.90
2019-05-10T13:00:52.701Z,17.20
2019-05-10T13:03:19.378Z,17.80
2019-05-10T13:05:52.444Z,18.50
2019-05-10T13:08:18.601Z,18.80
2019-05-10T13:10:49.718Z,17.80
2019-05-10T13:13:23.026Z,17.50
2019-05-10T13:15:48.148Z,16.90
2019-05-10T13:18:16.946Z,17.20
2019-05-10T13:20:45.735Z,17.70
2019-05-10T13:23:15.966Z,18.00
2019-05-10T13:25:44.388Z,18.20
2019-05-10T13:28:12.856Z,18.10
2019-05-10T13:30:41.721Z,17.70
2019-05-10T13:33:10.195Z,17.60
2019-05-10T13:35:38.795Z,17.80
2019-05-10T13:38:07.595Z,17.30
2019-05-10T13:40:38.993Z,17.20
2019-05-10T13:43:06.611Z,17.90
2019-05-10T13:45:37.597Z,18.90
2019-05-10T13:48:05.636Z,19.30
2019-05-10T13:50:34.414Z,18.60
2019-05-10T13:53:03.217Z,18.00
2019-05-10T13:55:31.739Z,17.60
2019-05-10T13:58:00.495Z,17.30
2019-05-10T14:00:33.956Z,17.20
2019-05-10T14:02:59.209Z,16.80
2019-05-10T14:05:27.996Z,16.70
2019-05-10T14:07:56.913Z,16.20
2019-05-10T14:10:25.526Z,16.50
2019-05-10T14:12:56.199Z,16.70
2019-05-10T14:15:24.907Z,16.60
2019-05-10T14:17:53.707Z,16.20
2019-05-10T14:20:27.522Z,15.90
2019-05-10T14:22:55.860Z,15.70
2019-05-10T14:25:22.874Z,16.50
2019-05-10T14:27:51.414Z,16.60
2019-05-10T14:30:20.327Z,17.00
2019-05-10T14:32:48.795Z,16.70
2019-05-10T14:35:22.418Z,17.40
2019-05-10T14:37:48.374Z,17.70
2019-05-10T14:40:27.311Z,17.50
2019-05-10T14:42:47.179Z,17.30
2019-05-10T14:45:16.304Z,18.10
2019-05-10T14:47:47.864Z,18.50
2019-05-10T14:50:19.575Z,17.20
2019-05-10T14:52:45.904Z,18.40
2019-05-10T14:55:14.595Z,18.40
2019-05-10T14:57:43.062Z,19.70
2019-05-10T15:00:13.241Z,18.70
2019-05-10T15:02:42.103Z,19.00
2019-05-10T15:05:15.873Z,17.60
2019-05-10T15:07:41.364Z,17.90
2019-05-10T15:10:09.957Z,18.40
2019-05-10T15:12:38.427Z,19.40
2019-05-10T15:15:07.317Z,18.60
2019-05-10T15:17:36.083Z,18.60
2019-05-10T15:20:06.466Z,18.20
2019-05-10T15:22:35.004Z,18.60
2019-05-10T15:25:03.825Z,19.90
2019-05-10T15:27:32.592Z,19.90
2019-05-10T15:30:05.092Z,19.50
2019-05-10T15:32:31.575Z,19.40
2019-05-10T15:35:06.948Z,19.60
2019-05-10T15:37:30.199Z,18.20
2019-05-10T15:40:00.399Z,18.20
2019-05-10T15:42:30.505Z,17.80
2019-05-10T15:45:05.179Z,19.10
2019-05-10T15:47:30.408Z,19.50
2019-05-10T15:49:59.970Z,18.10
2019-05-10T15:52:29.343Z,16.80
2019-05-10T15:54:58.215Z,16.80
2019-05-10T15:57:26.739Z,16.40
2019-05-10T15:59:56.851Z,16.60
2019-05-10T16:02:25.411Z,16.70
2019-05-10T16:04:53.963Z,17.00
2019-05-10T16:07:22.692Z,16.90
2019-05-10T16:09:54.381Z,17.10
2019-05-10T16:12:21.415Z,17.20
2019-05-10T16:14:49.881Z,17.60
2019-05-10T16:17:23.571Z,17.00
2019-05-10T16:19:51.008Z,17.10
2019-05-10T16:22:19.315Z,16.90
2019-05-10T16:24:48.133Z,16.90
2019-05-10T16:27:16.929Z,17.20
2019-05-10T16:29:45.724Z,18.00
2019-05-10T16:32:14.172Z,19.30
2019-05-10T16:34:42.995Z,19.20
2019-05-10T16:37:11.444Z,18.80
2019-05-10T16:39:40.276Z,18.20
2019-05-10T16:42:09.069Z,17.00
2019-05-10T16:44:37.534Z,16.70
2019-05-10T16:47:06.243Z,16.40
2019-05-10T16:49:34.715Z,16.00
2019-05-10T16:52:03.524Z,15.80
2019-05-10T16:54:31.990Z,15.80
2019-05-10T16:57:01.491Z,16.00
2019-05-10T16:59:31.416Z,15.90
2019-05-10T17:02:04.156Z,15.80
2019-05-10T17:04:31.946Z,15.80
2019-05-10T17:07:01.087Z,15.60
2019-05-10T17:09:29.884Z,15.50
2019-05-10T17:11:59.235Z,15.20
2019-05-10T17:14:27.989Z,15.30
2019-05-10T17:16:59.770Z,15.20
2019-05-10T17:19:27.869Z,15.00
2019-05-10T17:21:57.534Z,14.70
2019-05-10T17:24:26.002Z,14.40
2019-05-10T17:26:54.803Z,14.20
2019-05-10T17:29:23.339Z,14.10
2019-05-10T17:31:52.091Z,13.90
2019-05-10T17:34:29.178Z,13.80
2019-05-10T17:36:51.745Z,13.70
2019-05-10T17:39:26.237Z,13.60
2019-05-10T17:41:51.763Z,13.40
2019-05-10T17:44:23.165Z,13.40
2019-05-10T17:46:55.405Z,13.10
2019-05-10T17:49:24.587Z,13.30
2019-05-10T17:51:53.059Z,13.40
2019-05-10T17:54:21.509Z,13.50
2019-05-10T17:56:49.979Z,13.70
2019-05-10T17:59:18.430Z,13.80
2019-05-10T18:01:47.215Z,13.80
2019-05-10T18:04:15.662Z,13.70
2019-05-10T18:06:44.500Z,13.60
2019-05-10T18:09:13.291Z,13.50
2019-05-10T18:11:42.921Z,13.30
2019-05-10T18:14:17.707Z,13.20
2019-05-10T18:16:47.838Z,12.90
2019-05-10T18:19:13.275Z,12.50
2019-05-10T18:21:41.743Z,12.30
2019-05-10T18:24:10.547Z,12.10
2019-05-10T18:26:39.642Z,11.80
2019-05-10T18:29:09.186Z,11.70
2019-05-10T18:31:37.668Z,11.60
2019-05-10T18:34:06.448Z,11.40
2019-05-10T18:36:51.286Z,11.30
2019-05-10T18:39:09.140Z,11.10
2019-05-10T18:41:41.419Z,10.90
2019-05-10T18:44:08.626Z,10.80
2019-05-10T18:46:56.803Z,10.60
2019-05-10T18:49:25.595Z,10.30
2019-05-10T18:52:03.329Z,10.20
2019-05-10T18:54:24.522Z,10.10
2019-05-10T18:56:54.138Z,10.00
2019-05-10T18:59:22.659Z,9.90
2019-05-10T19:01:51.122Z,9.80
2019-05-10T19:04:19.575Z,9.80
2019-05-10T19:06:50.215Z,9.70
2019-05-10T19:09:18.203Z,9.70
2019-05-10T19:11:47.064Z,9.50
2019-05-10T19:14:16.291Z,9.40
2019-05-10T19:16:44.827Z,9.30
2019-05-10T19:19:13.572Z,9.20
2019-05-10T19:21:42.035Z,9.00
2019-05-10T19:24:10.478Z,8.90
2019-05-10T19:26:38.962Z,8.80
2019-05-10T19:29:07.727Z,8.70
2019-05-10T19:31:38.078Z,8.70
2019-05-10T19:34:09.232Z,8.70
2019-05-10T19:36:37.264Z,8.60
2019-05-10T19:39:07.312Z,8.40
2019-05-10T19:41:36.084Z,8.40
2019-05-10T19:44:04.778Z,8.40
2019-05-10T19:46:39.391Z,8.30
2019-05-10T19:49:07.592Z,8.10
2019-05-10T19:51:35.259Z,8.20
2019-05-10T19:54:03.947Z,8.20
2019-05-10T19:56:36.900Z,8.00
2019-05-10T19:59:05.581Z,8.00
2019-05-10T20:01:32.845Z,7.90
2019-05-10T20:04:01.388Z,7.90
2019-05-10T20:06:30.151Z,7.60
2019-05-10T20:08:58.619Z,7.70
2019-05-10T20:11:27.063Z,7.70
2019-05-10T20:13:55.529Z,7.80
2019-05-10T20:16:24.300Z,7.70
2019-05-10T20:18:53.087Z,7.60
2019-05-10T20:21:21.888Z,7.50
2019-05-10T20:23:50.679Z,7.50
2019-05-10T20:26:19.128Z,7.50
2019-05-10T20:28:47.596Z,7.40
2019-05-10T20:31:16.048Z,7.00
2019-05-10T20:33:44.519Z,6.90
2019-05-10T20:36:12.965Z,7.00
2019-05-10T20:38:41.507Z,7.20
2019-05-10T20:41:09.951Z,7.20
2019-05-10T20:43:38.783Z,7.20
2019-05-10T20:46:07.359Z,7.10
2019-05-10T20:48:35.831Z,7.10
2019-05-10T20:51:04.279Z,6.90
2019-05-10T20:53:32.746Z,6.80
2019-05-10T20:56:01.463Z,6.90
2019-05-10T20:58:30.299Z,7.20
2019-05-10T21:00:59.092Z,7.40
2019-05-10T21:03:27.879Z,7.20
2019-05-10T21:05:56.687Z,7.30
2019-05-10T21:08:25.226Z,7.40
2019-05-10T21:10:53.751Z,7.40
2019-05-10T21:13:22.539Z,7.30
2019-05-10T21:15:51.440Z,7.20
2019-05-10T21:18:19.933Z,6.90
2019-05-10T21:20:48.725Z,6.80
2019-05-10T21:23:17.609Z,6.70
2019-05-10T21:25:46.054Z,6.60
2019-05-10T21:28:14.892Z,6.80
2019-05-10T21:30:43.343Z,6.90
2019-05-10T21:33:11.817Z,6.90
2019-05-10T21:35:40.654Z,7.00
2019-05-10T21:38:09.452Z,7.20
2019-05-10T21:40:38.248Z,7.30
2019-05-10T21:43:07.143Z,7.30
2019-05-10T21:45:35.587Z,7.40
2019-05-10T21:48:04.038Z,7.50
2019-05-10T21:50:32.808Z,7.40
2019-05-10T21:53:01.325Z,7.40
2019-05-10T21:55:30.183Z,7.30
2019-05-10T21:57:58.966Z,7.20
2019-05-10T22:00:29.160Z,7.20
2019-05-10T22:02:57.607Z,7.50
2019-05-10T22:05:26.148Z,7.60
2019-05-10T22:07:54.675Z,7.60
2019-05-10T22:10:23.552Z,7.60
2019-05-10T22:12:52.348Z,7.20
2019-05-10T22:15:20.887Z,6.90
2019-05-10T22:17:49.335Z,6.80
2019-05-10T22:20:18.114Z,7.00
2019-05-10T22:22:46.567Z,7.10
2019-05-10T22:25:15.035Z,7.20
2019-05-10T22:27:43.771Z,7.00
2019-05-10T22:30:12.827Z,7.10
2019-05-10T22:32:41.659Z,7.30
2019-05-10T22:35:10.197Z,7.10
2019-05-10T22:37:38.650Z,7.00
2019-05-10T22:40:07.537Z,6.90
2019-05-10T22:42:36.054Z,7.20
2019-05-10T22:45:07.027Z,7.40
2019-05-10T22:47:35.471Z,7.30
2019-05-10T22:50:06.563Z,7.10
2019-05-10T22:52:35.012Z,7.10
2019-05-10T22:55:05.095Z,7.10
2019-05-10T22:57:33.615Z,7.00
2019-05-10T23:00:02.782Z,7.30
2019-05-10T23:02:31.580Z,7.40
2019-05-10T23:05:00.304Z,7.20
2019-05-10T23:07:28.832Z,7.30
2019-05-10T23:09:57.296Z,7.30
2019-05-10T23:12:26.035Z,7.10
2019-05-10T23:14:54.499Z,7.00
2019-05-10T23:17:23.027Z,7.20
2019-05-10T23:19:51.495Z,7.40
2019-05-10T23:22:20.211Z,7.50
2019-05-10T23:24:48.979Z,7.40
2019-05-10T23:27:17.693Z,7.00
2019-05-10T23:29:46.168Z,7.10
2019-05-10T23:32:14.943Z,6.70
2019-05-10T23:34:43.735Z,6.60
2019-05-10T23:37:12.259Z,6.50
2019-05-10T23:39:41.550Z,6.50
2019-05-10T23:42:10.144Z,6.60
2019-05-10T23:44:38.675Z,6.60
2019-05-10T23:47:07.492Z,6.50
2019-05-10T23:49:36.284Z,6.50
2019-05-10T23:52:04.956Z,6.50
2019-05-10T23:54:33.547Z,6.10
2019-05-10T23:57:02.035Z,6.00
2019-05-10T23:59:30.484Z,5.80
